Time;durP1;ratioP1;P1;durP2;ratioP2;P2;SDS_P1;SDS_P2;PMS_P1;PMS_P2;Temp;Humidity;BMP_temperature;BMP_pressure;BME280_temperature;BME280_humidity;BME280_pressure;Samples;Min_cycle;Max_cycle;Signal;HPM_P1;HPM_P2
2022/05/12 00:02:18;;;;;;;;;4.50;2.25;;;;;18.33;56.19;100962.47;6270582;22;45781;-76
2022/05/12 00:04:44;;;;;;;;;3.25;2.00;;;;;18.31;55.97;100959.94;6270890;22;45725;-75
2022/05/12 00:07:10;;;;;;;;;3.75;2.00;;;;;18.28;56.21;100970.88;6270464;22;45799;-76
2022/05/12 00:12:58;;;;;;;;;2.00;2.00;;;;;18.24;56.64;100976.63;6270190;22;45605;-76
2022/05/12 00:15:31;;;;;;;;;2.25;2.00;;;;;18.18;56.57;100964.81;6271259;22;45607;-76
2022/05/12 00:17:56;;;;;;;;;4.50;3.50;;;;;18.17;56.26;100971.09;6270245;22;45512;-76
2022/05/12 00:20:23;;;;;;;;;3.00;3.00;;;;;18.17;56.77;100973.75;6271056;22;45723;-77
2022/05/12 00:22:49;;;;;;;;;3.75;2.00;;;;;18.15;56.66;100988.13;6271537;22;45574;-78
2022/05/12 00:25:22;;;;;;;;;3.00;3.00;;;;;18.07;57.18;100983.56;6272102;22;45648;-75
2022/05/12 00:27:47;;;;;;;;;4.25;2.75;;;;;18.02;56.37;100984.00;6242777;22;46600;-79
2022/05/12 00:30:14;;;;;;;;;4.00;3.00;;;;;18.01;57.31;100985.00;6243642;22;46976;-78
2022/05/12 00:32:43;;;;;;;;;4.75;3.25;;;;;18.04;56.66;100999.75;6271303;22;45527;-78
2022/05/12 00:35:10;;;;;;;;;3.25;2.25;;;;;18.04;56.42;100999.75;6271772;22;45523;-77
2022/05/12 00:37:36;;;;;;;;;4.00;3.00;;;;;17.93;56.45;101002.59;6271308;22;45801;-78
2022/05/12 00:40:01;;;;;;;;;4.00;3.25;;;;;17.94;56.96;101001.63;6271195;22;46117;-76
2022/05/12 00:42:27;;;;;;;;;4.00;3.00;;;;;17.89;56.95;100999.41;6270517;22;45563;-77
2022/05/12 00:44:52;;;;;;;;;4.00;4.00;;;;;17.89;56.73;101007.38;6271791;22;45716;-77
2022/05/12 00:47:18;;;;;;;;;3.00;3.00;;;;;17.86;56.99;101004.19;6271417;22;46696;-77
2022/05/12 00:49:46;;;;;;;;;3.75;2.25;;;;;17.80;57.19;100994.16;6270448;22;46282;-76
2022/05/12 00:52:16;;;;;;;;;2.75;2.25;;;;;17.84;57.13;101001.69;6243626;22;45646;-76
2022/05/12 00:58:07;;;;;;;;;4.75;3.00;;;;;17.79;57.35;101027.78;6270458;22;46076;-77
2022/05/12 01:00:32;;;;;;;;;5.25;3.00;;;;;17.72;57.38;101023.19;6270926;22;47314;-77
2022/05/12 01:03:02;;;;;;;;;4.50;3.00;;;;;17.71;57.63;101029.47;6271754;22;45575;-76
2022/05/12 01:05:29;;;;;;;;;2.75;2.00;;;;;17.69;57.29;101027.00;6271676;22;45874;-76
2022/05/12 01:14:05;;;;;;;;;3.00;2.25;;;;;17.61;57.28;101043.59;6271125;22;45679;-76
2022/05/12 01:16:39;;;;;;;;;4.00;3.50;;;;;17.56;58.18;101029.91;6272013;22;45716;-75
2022/05/12 01:19:06;;;;;;;;;6.00;4.25;;;;;17.54;57.74;101020.44;6271255;22;45495;-74
2022/05/12 01:21:33;;;;;;;;;4.50;3.75;;;;;17.58;57.54;101032.44;6271129;22;45761;-76
2022/05/12 01:24:00;;;;;;;;;3.00;2.00;;;;;17.58;57.46;101035.91;6271619;22;45656;-77
2022/05/12 01:26:25;;;;;;;;;4.00;2.75;;;;;17.55;57.64;101032.69;6271162;22;45707;-78
2022/05/12 01:28:51;;;;;;;;;4.50;3.00;;;;;17.47;57.38;101025.47;6271064;22;45531;-76
2022/05/12 01:31:18;;;;;;;;;3.00;3.00;;;;;17.57;57.38;101044.84;6270297;22;46074;-77
2022/05/12 01:33:43;;;;;;;;;5.25;3.75;;;;;17.50;57.67;101033.13;6271113;22;45563;-76
2022/05/12 01:36:09;;;;;;;;;3.00;3.00;;;;;17.53;57.77;101038.16;6270912;22;45529;-76
2022/05/12 01:38:34;;;;;;;;;6.25;5.00;;;;;17.58;57.95;101037.72;6271216;22;46446;-75
2022/05/12 01:41:00;;;;;;;;;3.50;3.00;;;;;17.52;58.22;101030.34;6270878;22;45576;-76
2022/05/12 01:43:25;;;;;;;;;4.00;3.75;;;;;17.53;58.32;101042.63;6271069;22;45737;-76
2022/05/12 01:45:51;;;;;;;;;3.50;3.50;;;;;17.52;57.96;101046.25;6271381;22;45934;-76
2022/05/12 01:48:17;;;;;;;;;6.00;4.00;;;;;17.53;57.85;101055.88;6270853;22;46640;-77
2022/05/12 01:50:45;;;;;;;;;6.00;4.50;;;;;17.39;58.07;101033.28;6271421;22;45647;-77
2022/05/12 01:53:11;;;;;;;;;4.50;4.00;;;;;17.51;57.93;101061.31;6271203;22;45710;-78
2022/05/12 01:58:58;;;;;;;;;3.25;3.00;;;;;17.44;58.16;101081.38;6271275;22;45890;-77
2022/05/12 02:01:24;;;;;;;;;3.25;3.00;;;;;17.38;57.90;101065.25;6271277;22;45540;-76
2022/05/12 02:03:49;;;;;;;;;5.75;4.00;;;;;17.25;57.80;101068.19;6243184;22;45437;-77
2022/05/12 02:06:14;;;;;;;;;2.50;2.25;;;;;17.23;57.58;101070.13;6271661;22;45659;-77
2022/05/12 02:08:40;;;;;;;;;3.00;2.00;;;;;17.17;57.84;101078.63;6271058;22;45763;-77
2022/05/12 02:11:05;;;;;;;;;4.00;3.00;;;;;17.08;57.82;101084.75;6270592;22;45558;-76
2022/05/12 02:13:31;;;;;;;;;3.25;3.00;;;;;17.11;57.56;101087.94;6271492;22;45756;-79
2022/05/12 02:15:57;;;;;;;;;2.75;2.25;;;;;17.03;57.28;101074.59;6271331;22;45750;-78
2022/05/12 02:18:23;;;;;;;;;3.50;2.75;;;;;17.02;57.40;101087.97;6270831;22;46392;-77
2022/05/12 02:20:49;;;;;;;;;3.25;2.00;;;;;17.03;57.55;101095.78;6271268;22;45678;-76
2022/05/12 02:23:14;;;;;;;;;3.00;3.00;;;;;17.04;56.74;101101.91;6271347;22;45645;-77
2022/05/12 02:29:03;;;;;;;;;2.00;2.00;;;;;16.94;56.31;101106.34;6271021;22;45976;-79
2022/05/12 02:31:29;;;;;;;;;2.25;1.75;;;;;16.90;55.83;101099.63;6271290;22;45543;-78
2022/05/12 02:33:55;;;;;;;;;3.00;2.00;;;;;16.87;55.50;101099.94;6271605;22;45684;-77
2022/05/12 02:36:21;;;;;;;;;2.75;2.50;;;;;16.87;55.34;101107.88;6271139;22;45472;-77
2022/05/12 02:38:47;;;;;;;;;3.50;2.00;;;;;16.88;55.01;101126.28;6271164;22;45577;-76
2022/05/12 02:44:47;;;;;;;;;2.25;2.00;;;;;16.84;54.64;101109.00;6265808;22;45889;-76
2022/05/12 02:47:14;;;;;;;;;2.00;1.00;;;;;16.81;54.64;101116.34;6271374;22;45476;-79
2022/05/12 02:49:40;;;;;;;;;1.50;1.50;;;;;16.77;54.76;101121.09;6242684;22;48520;-77
2022/05/12 02:52:07;;;;;;;;;3.00;2.00;;;;;16.70;55.19;101120.78;6271082;22;46356;-80
2022/05/12 02:54:33;;;;;;;;;3.50;1.00;;;;;16.68;55.12;101114.78;6243198;22;45646;-77
2022/05/12 02:56:58;;;;;;;;;1.00;1.00;;;;;16.71;54.99;101108.41;6271209;22;45604;-77
2022/05/12 02:59:24;;;;;;;;;0.50;0.00;;;;;16.65;55.23;101107.13;6271324;22;46225;-77
2022/05/12 03:01:49;;;;;;;;;2.00;1.50;;;;;16.61;55.32;101118.97;6270864;22;45970;-77
2022/05/12 03:04:16;;;;;;;;;1.25;1.00;;;;;16.63;55.50;101127.59;6271117;22;45794;-78
2022/05/12 03:06:42;;;;;;;;;3.00;1.50;;;;;16.52;55.59;101122.38;6271323;22;45810;-76
2022/05/12 03:09:09;;;;;;;;;2.25;1.50;;;;;16.53;55.85;101131.97;6271215;22;46551;-76
2022/05/12 03:14:56;;;;;;;;;1.75;1.00;;;;;16.60;55.99;101154.31;6270520;22;45663;-77
2022/05/12 03:17:21;;;;;;;;;2.50;1.25;;;;;16.59;55.95;101146.53;6270990;22;45587;-79
2022/05/12 03:19:47;;;;;;;;;2.25;1.75;;;;;16.46;55.90;101125.56;6270436;22;45736;-80
2022/05/12 03:22:12;;;;;;;;;2.00;0.75;;;;;16.48;55.51;101136.00;6271096;22;45959;-78
2022/05/12 03:24:38;;;;;;;;;1.00;1.00;;;;;16.43;55.81;101138.22;6270602;22;45839;-76
2022/05/12 03:27:04;;;;;;;;;1.00;0.00;;;;;16.41;55.38;101151.56;6270920;22;45691;-77
2022/05/12 03:29:29;;;;;;;;;1.50;1.00;;;;;16.33;55.28;101159.34;6271349;22;46221;-77
2022/05/12 03:31:54;;;;;;;;;2.00;1.00;;;;;16.08;55.76;101133.34;6271156;22;45497;-80
2022/05/12 03:34:20;;;;;;;;;1.25;1.25;;;;;16.01;55.86;101145.41;6270501;22;45521;-79
2022/05/12 03:36:45;;;;;;;;;1.00;1.00;;;;;16.06;56.35;101149.31;6271085;22;45578;-79
2022/05/12 03:39:10;;;;;;;;;1.00;1.00;;;;;15.98;55.91;101145.69;6270221;22;45687;-78
2022/05/12 03:44:59;;;;;;;;;1.00;1.00;;;;;15.93;56.42;101159.25;6267659;22;45886;-78
2022/05/12 03:47:28;;;;;;;;;1.00;1.00;;;;;15.92;56.56;101154.97;6271161;22;45706;-78
2022/05/12 03:49:57;;;;;;;;;1.00;1.00;;;;;15.94;56.89;101155.66;6270959;22;45602;-78
2022/05/12 03:52:24;;;;;;;;;2.00;1.00;;;;;15.96;56.66;101151.09;6270166;22;45801;-81
2022/05/12 03:54:50;;;;;;;;;3.25;2.00;;;;;15.94;56.58;101151.19;6272021;22;45491;-78
2022/05/12 03:57:16;;;;;;;;;2.50;1.00;;;;;15.98;56.67;101149.13;6274305;22;45574;-78
2022/05/12 03:59:42;;;;;;;;;1.75;1.00;;;;;15.95;56.59;101150.25;6273676;22;45846;-82
2022/05/12 04:02:09;;;;;;;;;1.75;1.75;;;;;15.97;56.83;101165.13;6274361;22;46225;-80
2022/05/12 04:04:35;;;;;;;;;3.25;2.00;;;;;15.91;56.83;101156.75;6272966;22;45626;-81
2022/05/12 04:07:01;;;;;;;;;1.25;1.00;;;;;15.84;56.97;101160.03;6272675;22;45704;-77
2022/05/12 04:09:27;;;;;;;;;2.00;1.75;;;;;15.85;57.28;101162.56;6273632;22;46837;-78
2022/05/12 04:15:15;;;;;;;;;2.00;1.50;;;;;15.74;57.46;101161.78;6273410;22;45806;-78
2022/05/12 04:17:42;;;;;;;;;1.50;1.00;;;;;15.71;58.10;101165.50;6274248;22;45483;-76
2022/05/12 04:20:12;;;;;;;;;2.75;2.00;;;;;15.73;58.28;101163.59;6273810;22;45529;-76
2022/05/12 04:22:40;;;;;;;;;2.25;1.75;;;;;15.75;58.09;101159.03;6245323;22;47488;-75
2022/05/12 04:25:06;;;;;;;;;3.25;3.00;;;;;15.82;57.63;101178.66;6245861;22;45621;-76
2022/05/12 04:27:40;;;;;;;;;2.75;1.00;;;;;15.77;57.77;101175.56;6245789;22;45802;-79
2022/05/12 04:30:06;;;;;;;;;5.75;2.00;;;;;15.81;57.84;101181.44;6273906;22;45797;-78
2022/05/12 04:32:32;;;;;;;;;2.00;2.00;;;;;15.78;57.97;101186.97;6274072;22;46664;-76
2022/05/12 04:35:11;;;;;;;;;1.00;1.00;;;;;15.71;57.88;101178.72;6273862;22;45429;-77
2022/05/12 04:37:37;;;;;;;;;2.75;1.00;;;;;15.69;58.11;101182.47;6273521;22;45667;-76
2022/05/12 04:40:12;;;;;;;;;2.75;1.75;;;;;15.64;58.32;101179.38;6273763;22;45763;-77
2022/05/12 04:42:37;;;;;;;;;1.75;1.50;;;;;15.64;58.40;101185.50;6273777;22;46176;-74
2022/05/12 04:45:05;;;;;;;;;1.25;1.00;;;;;15.62;58.53;101184.78;6272927;22;45575;-75
2022/05/12 04:47:32;;;;;;;;;2.00;2.00;;;;;15.61;58.43;101182.25;6274162;22;45633;-79
2022/05/12 04:49:58;;;;;;;;;2.50;2.50;;;;;15.62;58.48;101195.34;6274556;22;46880;-77
2022/05/12 04:52:25;;;;;;;;;2.50;1.25;;;;;15.59;58.51;101190.31;6275859;22;45934;-78
2022/05/12 04:54:50;;;;;;;;;2.00;1.00;;;;;15.46;58.70;101169.31;6274249;22;45606;-77
2022/05/12 05:00:40;;;;;;;;;1.25;1.25;;;;;15.42;58.79;101185.56;6273117;22;45591;-76
2022/05/12 05:03:07;;;;;;;;;2.75;2.00;;;;;15.41;58.93;101211.13;6273415;22;46214;-77
2022/05/12 05:05:34;;;;;;;;;2.00;2.00;;;;;15.32;59.28;101206.59;6273096;22;45713;-78
2022/05/12 05:08:00;;;;;;;;;2.00;2.00;;;;;15.17;59.52;101191.16;6271977;22;45666;-81
2022/05/12 05:10:26;;;;;;;;;2.50;1.75;;;;;15.18;59.51;101198.09;6272193;22;46248;-80
2022/05/12 05:12:53;;;;;;;;;1.75;1.00;;;;;15.09;59.89;101181.22;6272048;22;46384;-78
2022/05/12 05:15:20;;;;;;;;;2.75;1.75;;;;;15.07;59.72;101191.88;6271428;22;45680;-78
2022/05/12 05:17:46;;;;;;;;;2.75;1.75;;;;;15.16;59.95;101205.31;6272092;22;45749;-79
2022/05/12 05:20:16;;;;;;;;;3.00;2.00;;;;;15.13;59.69;101212.50;6271597;22;46920;-77
2022/05/12 05:22:42;;;;;;;;;2.25;1.50;;;;;15.08;60.25;101211.19;6271751;22;45994;-80
2022/05/12 05:25:08;;;;;;;;;2.00;1.00;;;;;15.07;59.93;101210.34;6271156;22;45437;-77
2022/05/12 05:30:55;;;;;;;;;2.00;2.00;;;;;15.05;60.06;101227.28;6271488;22;45960;-77
2022/05/12 05:33:21;;;;;;;;;3.00;2.00;;;;;15.02;60.50;101232.81;6271168;22;45727;-78
2022/05/12 05:35:47;;;;;;;;;4.75;3.00;;;;;14.97;60.66;101238.44;6271225;22;45471;-77
2022/05/12 05:38:12;;;;;;;;;3.00;2.00;;;;;15.02;60.26;101246.00;6271760;22;45766;-76
2022/05/12 05:40:38;;;;;;;;;3.00;2.00;;;;;15.02;60.37;101252.13;6271367;22;46565;-77
2022/05/12 05:43:03;;;;;;;;;2.00;1.00;;;;;15.02;60.73;101244.19;6271017;22;45849;-81
2022/05/12 05:45:30;;;;;;;;;3.25;2.75;;;;;15.07;60.73;101239.38;6269246;22;45536;-76
2022/05/12 05:47:58;;;;;;;;;3.50;1.50;;;;;15.08;60.64;101249.00;6243325;22;45849;-77
2022/05/12 05:53:23;;;;;;;;;2.00;2.00;;;;;15.14;60.38;101250.31;6271680;22;45567;-77
2022/05/12 05:53:26;;;;;;;;;4.00;2.50;;;;;15.16;59.88;101256.31;6269775;22;46052;-76
2022/05/12 05:55:53;;;;;;;;;3.50;2.50;;;;;15.14;59.85;101255.59;6271369;22;45644;-76
2022/05/12 05:58:19;;;;;;;;;4.25;3.00;;;;;15.22;59.85;101260.25;6271476;22;45562;-76
2022/05/12 06:00:45;;;;;;;;;2.75;2.00;;;;;15.22;60.18;101269.03;6270869;22;46244;-75
2022/05/12 06:03:11;;;;;;;;;3.00;2.50;;;;;15.20;60.17;101264.81;6270281;22;46217;-77
2022/05/12 06:05:37;;;;;;;;;5.00;3.00;;;;;15.24;60.07;101287.34;6270490;22;45780;-76
2022/05/12 06:08:04;;;;;;;;;4.00;3.00;;;;;15.30;59.75;101295.63;6217474;22;45568;-77
2022/05/12 06:10:30;;;;;;;;;5.00;3.50;;;;;15.35;59.75;101295.25;6271193;22;45814;-76
2022/05/12 06:16:16;;;;;;;;;4.00;3.00;;;;;15.35;59.58;101295.25;6270365;22;45792;-77
2022/05/12 06:18:42;;;;;;;;;3.50;3.00;;;;;15.40;59.53;101304.50;6271263;22;45624;-77
2022/05/12 06:21:12;;;;;;;;;4.00;3.25;;;;;15.45;59.45;101307.59;6271443;22;46455;-75
2022/05/12 06:23:39;;;;;;;;;3.00;3.00;;;;;15.50;59.50;101302.78;6271048;22;46026;-74
2022/05/12 06:26:09;;;;;;;;;3.00;3.00;;;;;15.56;59.00;101311.22;6271246;22;45605;-76
2022/05/12 06:28:35;;;;;;;;;4.50;2.00;;;;;15.62;58.96;101308.94;6270765;22;45532;-77
2022/05/12 06:31:00;;;;;;;;;5.25;4.75;;;;;15.67;58.94;101303.25;6271382;22;46510;-76
2022/05/12 06:33:25;;;;;;;;;4.50;3.25;;;;;15.72;58.63;101298.44;6270867;22;46273;-77
2022/05/12 06:35:55;;;;;;;;;3.25;2.75;;;;;15.77;58.58;101305.03;6270754;22;45493;-77
2022/05/12 06:38:20;;;;;;;;;3.00;2.00;;;;;15.76;58.46;101300.69;6271295;22;45970;-76
2022/05/12 06:40:46;;;;;;;;;5.25;3.00;;;;;15.85;58.26;101314.97;6271382;22;45760;-77
2022/05/12 06:46:33;;;;;;;;;5.00;4.00;;;;;15.90;58.12;101313.66;6264755;22;45799;-77
2022/05/12 06:49:02;;;;;;;;;8.00;5.75;;;;;15.92;58.13;101310.88;6271637;22;45752;-77
2022/05/12 06:51:27;;;;;;;;;5.25;4.00;;;;;15.95;58.09;101315.91;6271380;22;45448;-75
2022/05/12 06:53:53;;;;;;;;;4.75;4.00;;;;;15.98;57.79;101310.34;6242911;22;47926;-76
2022/05/12 06:56:18;;;;;;;;;4.50;3.25;;;;;16.10;57.36;101321.72;6271244;22;45441;-74
2022/05/12 06:58:43;;;;;;;;;3.00;3.00;;;;;16.13;56.95;101313.56;6271522;22;45601;-77
2022/05/12 07:01:11;;;;;;;;;3.50;3.00;;;;;16.19;56.61;101318.34;6271182;22;45670;-77
2022/05/12 07:03:37;;;;;;;;;4.75;4.00;;;;;16.22;56.53;101323.34;6270832;22;46277;-78
2022/05/12 07:06:03;;;;;;;;;2.75;2.00;;;;;16.25;55.65;101317.78;6243333;22;45588;-80
2022/05/12 07:08:29;;;;;;;;;2.75;1.50;;;;;16.30;55.90;101319.09;6243504;22;45942;-81
2022/05/12 07:10:54;;;;;;;;;4.75;4.75;;;;;16.37;55.66;101324.72;6271790;22;46393;-80
2022/05/12 07:16:42;;;;;;;;;4.50;2.50;;;;;16.48;54.80;101314.06;6269972;22;45929;-81
2022/05/12 07:19:08;;;;;;;;;3.00;2.00;;;;;16.53;54.74;101319.81;6243187;22;45858;-81
2022/05/12 07:27:02;;;;;;;;;3.00;3.00;;;;;16.63;54.39;101311.97;6269860;22;45516;-82
2022/05/12 07:29:28;;;;;;;;;7.75;6.00;;;;;16.69;54.27;101312.28;6270440;22;45587;-82
2022/05/12 07:31:54;;;;;;;;;4.00;2.00;;;;;16.66;53.99;101296.69;6270287;22;45647;-81
2022/05/12 07:34:20;;;;;;;;;2.25;2.25;;;;;16.75;53.41;101317.03;6270266;22;46315;-82
2022/05/12 07:36:51;;;;;;;;;2.00;2.00;;;;;16.77;52.98;101309.81;6270369;22;45676;-81
2022/05/12 07:39:18;;;;;;;;;2.00;1.00;;;;;16.83;52.56;101311.13;6242697;22;45488;-82
2022/05/12 07:41:44;;;;;;;;;1.75;1.25;;;;;16.88;51.74;101311.56;6270309;22;45749;-81
2022/05/12 07:44:14;;;;;;;;;1.00;1.00;;;;;16.87;51.89;101312.50;6270535;22;45666;-81
2022/05/12 07:46:40;;;;;;;;;4.00;3.00;;;;;16.89;51.85;101310.59;6236707;22;45758;-81
2022/05/12 07:49:06;;;;;;;;;1.50;1.50;;;;;16.89;52.10;101300.00;6239513;22;45694;-79
2022/05/12 07:51:31;;;;;;;;;2.75;2.00;;;;;16.95;51.65;101317.16;6239904;22;45764;-80
2022/05/12 07:53:57;;;;;;;;;2.75;2.00;;;;;16.93;51.69;101295.25;6239237;22;46188;-82
2022/05/12 07:56:26;;;;;;;;;1.75;1.50;;;;;17.06;51.74;101317.03;6238598;22;45530;-82
2022/05/12 08:02:16;;;;;;;;;3.25;2.00;;;;;17.14;51.42;101312.78;6239010;22;45651;-82
2022/05/12 08:04:42;;;;;;;;;1.75;1.00;;;;;17.15;51.47;101317.09;6239675;22;46242;-80
2022/05/12 08:07:07;;;;;;;;;2.25;1.00;;;;;17.26;50.73;101334.69;6239569;22;45672;-80
2022/05/12 08:09:32;;;;;;;;;2.50;2.00;;;;;17.26;50.93;101326.75;6239735;22;45690;-81
2022/05/12 08:11:58;;;;;;;;;2.50;2.00;;;;;17.29;51.15;101337.06;6239529;22;46330;-81
2022/05/12 08:14:23;;;;;;;;;3.00;2.00;;;;;17.24;50.95;101325.19;6239594;22;45474;-84
2022/05/12 08:16:49;;;;;;;;;5.00;3.00;;;;;17.33;50.92;101335.81;6237146;22;45495;-81
2022/05/12 08:19:14;;;;;;;;;4.75;2.50;;;;;17.27;50.67;101324.94;6237238;22;45428;-82
2022/05/12 08:21:40;;;;;;;;;3.00;3.00;;;;;17.27;50.61;101325.78;6239297;22;45611;-81
2022/05/12 08:24:06;;;;;;;;;1.25;1.25;;;;;17.40;50.70;101344.06;6238416;22;45776;-81
2022/05/12 08:26:31;;;;;;;;;2.00;2.00;;;;;17.42;50.90;101334.19;6236953;22;45729;-82
2022/05/12 08:32:22;;;;;;;;;2.00;2.00;;;;;17.53;50.20;101329.63;6239014;22;46002;-80
2022/05/12 08:34:47;;;;;;;;;3.00;3.00;;;;;17.64;50.20;101335.81;6240569;22;46246;-77
2022/05/12 08:37:12;;;;;;;;;2.00;1.00;;;;;17.70;49.68;101338.75;6239951;22;46129;-78
2022/05/12 08:39:43;;;;;;;;;1.75;1.00;;;;;17.76;49.47;101342.66;6240203;22;45747;-77
2022/05/12 08:42:29;;;;;;;;;4.25;2.00;;;;;17.81;49.71;101337.78;6239001;22;48489;-78
2022/05/12 08:44:56;;;;;;;;;1.75;1.75;;;;;17.86;49.00;101341.72;6116979;23;45799;-78
2022/05/12 08:47:36;;;;;;;;;2.00;1.25;;;;;17.88;49.08;101330.94;6115963;23;45868;-77
2022/05/12 08:50:02;;;;;;;;;2.00;2.00;;;;;17.96;48.89;101339.91;6115921;23;45736;-76
2022/05/12 08:52:43;;;;;;;;;1.00;1.00;;;;;17.95;49.06;101329.44;6116269;23;46936;-77
2022/05/12 08:55:10;;;;;;;;;2.00;1.25;;;;;17.97;48.52;101338.09;6116063;23;45628;-77
2022/05/12 08:58:04;;;;;;;;;2.00;1.50;;;;;17.99;48.89;101334.31;6116275;23;45812;-76
2022/05/12 09:00:38;;;;;;;;;1.25;1.25;;;;;18.03;48.87;101332.19;6028530;23;45618;-76
2022/05/12 09:03:07;;;;;;;;;2.00;2.00;;;;;18.09;48.13;101336.13;6028366;23;45598;-77
2022/05/12 09:05:40;;;;;;;;;2.00;1.00;;;;;18.13;48.53;101327.75;6029071;23;45949;-76
2022/05/12 09:08:25;;;;;;;;;1.25;1.25;;;;;18.20;48.71;101320.91;6028672;23;45610;-76
2022/05/12 09:10:56;;;;;;;;;2.00;1.00;;;;;18.26;47.96;101317.69;6029540;23;46017;-77
2022/05/12 09:13:21;;;;;;;;;3.00;1.25;;;;;18.32;48.08;101322.44;6029496;23;46765;-77
2022/05/12 09:16:02;;;;;;;;;2.00;2.00;;;;;18.32;47.13;101334.84;6030548;23;46283;-77
2022/05/12 09:18:33;;;;;;;;;2.00;2.00;;;;;18.36;47.40;101331.78;6030551;23;45575;-76
2022/05/12 09:21:08;;;;;;;;;1.75;1.75;;;;;18.38;47.31;101332.47;6039800;23;45709;-75
2022/05/12 09:23:35;;;;;;;;;2.50;1.50;;;;;18.40;46.81;101330.53;6176000;23;46461;-77
2022/05/12 09:26:20;;;;;;;;;2.00;2.00;;;;;18.40;46.61;101335.84;6175924;23;45941;-77
2022/05/12 09:28:46;;;;;;;;;1.00;1.00;;;;;18.40;46.80;101327.88;6175025;23;45549;-76
2022/05/12 09:31:11;;;;;;;;;4.00;2.00;;;;;18.44;47.11;101339.88;6176170;23;45633;-76
2022/05/12 09:33:38;;;;;;;;;2.00;1.00;;;;;18.45;46.92;101338.06;6175187;23;46780;-77
2022/05/12 09:36:07;;;;;;;;;2.75;2.00;;;;;18.48;46.64;101335.13;6148683;23;48137;-79
2022/05/12 09:38:44;;;;;;;;;2.00;1.75;;;;;18.52;46.66;101338.31;6236672;22;45570;-78
2022/05/12 09:41:22;;;;;;;;;0.00;0.00;;;;;18.52;46.87;101330.34;6239100;22;45654;-76
2022/05/12 09:43:53;;;;;;;;;1.00;1.00;;;;;18.54;46.30;101320.44;6238811;22;46052;-78
2022/05/12 09:46:29;;;;;;;;;3.25;2.00;;;;;18.59;46.96;101319.06;6197841;22;1170390;-78
2022/05/12 09:49:16;;;;;;;;;1.00;1.00;;;;;18.63;46.63;101320.44;6271655;22;45661;-77
2022/05/12 09:51:42;;;;;;;;;2.50;1.00;;;;;18.57;46.08;101301.63;6244544;22;45545;-76
2022/05/12 09:54:15;;;;;;;;;1.00;1.00;;;;;18.65;46.21;101326.47;6271112;22;46471;-77
2022/05/12 09:56:46;;;;;;;;;1.25;1.25;;;;;18.72;46.56;101324.06;6271171;22;46422;-76
2022/05/12 09:59:14;;;;;;;;;2.00;1.50;;;;;18.74;46.76;101316.78;6271252;22;45508;-76
2022/05/12 10:01:56;;;;;;;;;2.50;2.00;;;;;18.76;46.73;101317.50;6271637;22;45544;-78
2022/05/12 10:10:37;;;;;;;;;4.25;3.00;;;;;18.93;46.84;101313.25;6271473;22;45790;-79
2022/05/12 10:16:28;;;;;;;;;4.00;2.75;;;;;19.07;46.57;101308.28;6271224;22;45993;-80
2022/05/12 10:18:58;;;;;;;;;3.00;3.00;;;;;19.13;46.76;101305.03;6271231;22;45366;-84
2022/05/12 10:21:30;;;;;;;;;2.00;2.00;;;;;19.16;46.55;101299.41;6273148;22;45614;-81
2022/05/12 10:24:17;;;;;;;;;3.00;2.00;;;;;19.23;46.76;101308.47;6272777;22;45477;-83
2022/05/12 10:26:50;;;;;;;;;1.50;1.50;;;;;19.27;46.85;101304.53;6271628;22;46541;-80
2022/05/12 10:33:12;;;;;;;;;3.25;3.00;;;;;19.45;46.56;101298.47;6272551;22;45626;-83
2022/05/12 10:36:14;;;;;;;;;1.75;1.75;;;;;19.57;46.50;101295.44;6275023;22;45490;-82
2022/05/12 10:38:51;;;;;;;;;1.50;1.50;;;;;19.64;45.72;101293.88;6275198;22;45584;-82
2022/05/12 10:41:26;;;;;;;;;4.00;2.00;;;;;19.74;45.37;101306.25;6247336;22;48149;-82
2022/05/12 10:44:10;;;;;;;;;3.75;2.75;;;;;19.78;45.22;101302.28;6275868;22;45882;-84
2022/05/12 10:47:01;;;;;;;;;4.25;2.50;;;;;19.77;45.04;101297.97;6241052;22;45759;-84
2022/05/12 10:50:04;;;;;;;;;3.50;2.00;;;;;19.93;45.24;101295.44;6246685;22;45501;-83
2022/05/12 10:52:45;;;;;;;;;3.25;1.00;;;;;20.00;44.99;101278.75;6247904;22;45521;-85
2022/05/12 10:55:43;;;;;;;;;2.00;2.00;;;;;20.03;44.62;101282.91;6246797;22;45788;-84
2022/05/12 11:01:37;;;;;;;;;2.00;2.00;;;;;20.11;44.55;101293.63;6124775;23;46048;-82
2022/05/12 11:04:05;;;;;;;;;2.00;2.00;;;;;20.13;44.32;101285.50;6125100;23;45884;-82
2022/05/12 11:06:38;;;;;;;;;3.00;3.00;;;;;20.08;44.29;101289.44;6125164;23;45682;-85
2022/05/12 11:09:11;;;;;;;;;2.25;2.00;;;;;20.02;44.40;101278.59;6125756;23;45579;-84
2022/05/12 11:11:45;;;;;;;;;3.00;2.25;;;;;20.06;43.81;101290.59;6127054;23;45643;-87
2022/05/12 11:17:58;;;;;;;;;2.00;1.50;;;;;20.13;43.81;101283.69;6126026;23;45605;-82
2022/05/12 11:20:25;;;;;;;;;1.25;1.25;;;;;20.19;43.21;101293.69;6125046;23;45621;-81
2022/05/12 11:23:20;;;;;;;;;2.00;2.00;;;;;20.21;43.29;101293.53;6125211;23;46840;-87
2022/05/12 11:26:17;;;;;;;;;2.00;1.50;;;;;20.21;43.23;101282.88;6089799;23;46417;-84
2022/05/12 11:32:14;;;;;;;;;1.00;1.00;;;;;20.44;43.63;101295.56;6120786;23;45578;-83
2022/05/12 11:34:44;;;;;;;;;2.00;1.75;;;;;20.46;43.72;101282.09;6160259;22;45645;-85
2022/05/12 11:37:30;;;;;;;;;4.00;2.00;;;;;20.57;43.48;101287.16;6243608;22;45910;-85
2022/05/12 11:39:59;;;;;;;;;2.75;2.75;;;;;20.61;43.25;101280.53;6244715;22;45613;-83
2022/05/12 11:42:28;;;;;;;;;1.00;1.00;;;;;20.65;43.09;101273.06;6248669;22;45669;-80
2022/05/12 11:48:31;;;;;;;;;2.00;1.50;;;;;20.78;42.80;101292.13;6271913;22;45689;-80
2022/05/12 11:51:07;;;;;;;;;2.25;1.50;;;;;20.70;43.21;101282.25;6278344;22;45682;-84
2022/05/12 11:53:48;;;;;;;;;2.75;2.50;;;;;20.77;43.04;101298.44;6251430;22;45886;-84
2022/05/12 11:56:34;;;;;;;;;2.00;1.75;;;;;20.69;42.91;101291.22;6280352;22;45568;-83
2022/05/12 11:59:18;;;;;;;;;2.75;2.00;;;;;20.68;42.97;101300.19;6253008;22;47334;-83
2022/05/12 12:01:44;;;;;;;;;3.75;2.00;;;;;20.67;43.15;101301.22;6278207;22;45586;-83
2022/05/12 12:04:14;;;;;;;;;2.50;1.75;;;;;20.62;43.38;101290.19;6272590;22;45581;-83
2022/05/12 12:06:41;;;;;;;;;1.75;1.25;;;;;20.61;42.91;101287.69;6271981;22;45664;-82
2022/05/12 12:09:25;;;;;;;;;3.00;1.75;;;;;20.66;43.00;101288.91;6272084;22;45779;-82
2022/05/12 12:11:51;;;;;;;;;2.00;2.00;;;;;20.66;42.87;101280.06;6271894;22;45478;-84
2022/05/12 12:14:57;;;;;;;;;2.00;2.00;;;;;20.69;43.17;101283.25;6272134;22;45567;-83
2022/05/12 12:17:25;;;;;;;;;2.00;2.00;;;;;20.72;42.88;101285.59;6127110;23;46438;-83
2022/05/12 12:19:54;;;;;;;;;4.00;2.50;;;;;20.76;42.89;101286.94;6128012;23;45701;-92
2022/05/12 12:22:35;;;;;;;;;2.50;1.25;;;;;20.80;42.71;101284.78;6127723;23;45654;-90
2022/05/12 12:25:07;;;;;;;;;2.00;1.50;;;;;20.78;42.56;101282.28;6103780;23;45723;-86
2022/05/12 12:28:10;;;;;;;;;3.00;1.75;;;;;20.77;42.56;101293.13;6128989;23;46863;-85
2022/05/12 12:30:47;;;;;;;;;3.75;2.00;;;;;20.80;42.79;101287.47;6120323;23;45507;-79
2022/05/12 12:33:25;;;;;;;;;2.50;0.75;;;;;20.82;42.69;101281.00;6124233;23;45613;-78
2022/05/12 12:36:12;;;;;;;;;0.50;0.50;;;;;20.81;42.53;101274.00;6099180;23;45786;-78
2022/05/12 12:38:46;;;;;;;;;0.75;0.75;;;;;20.86;42.61;101276.16;6125058;23;45843;-77
2022/05/12 12:41:30;;;;;;;;;2.25;1.50;;;;;20.90;42.44;101266.84;6123739;23;46341;-77
2022/05/12 12:47:25;;;;;;;;;0.75;0.75;;;;;21.04;42.40;101255.63;6148437;22;45587;-80
2022/05/12 12:50:13;;;;;;;;;2.50;1.00;;;;;21.07;42.44;101259.78;6280096;22;46481;-79
2022/05/12 12:52:50;;;;;;;;;2.75;2.00;;;;;21.11;42.67;101255.78;6124421;23;45530;-78
2022/05/12 12:58:15;;;;;;;;;0.50;0.50;;;;;21.12;42.01;101258.28;6124741;23;45649;-80
2022/05/12 13:04:01;;;;;;;;;1.75;0.75;;;;;21.25;41.75;101252.53;6124153;23;45667;-81
2022/05/12 13:06:30;;;;;;;;;2.00;1.00;;;;;21.26;40.89;101252.38;6125887;23;45630;-78
2022/05/12 13:09:14;;;;;;;;;1.25;1.00;;;;;21.30;40.87;101256.41;6126114;23;45724;-80
2022/05/12 13:11:42;;;;;;;;;1.25;1.25;;;;;21.26;41.06;101249.72;6125338;23;45674;-76
2022/05/12 13:14:11;;;;;;;;;2.75;0.75;;;;;21.26;40.77;101247.06;6121041;23;45897;-77
2022/05/12 13:16:40;;;;;;;;;2.25;1.00;;;;;21.26;40.87;101233.72;6122589;23;45880;-77